sensor_id;sensor_type;location;lat;lon;timestamp;P1;durP1;ratioP1;P2;durP2;ratioP2
61553;SDS011;47425;51.976;5.326;2024-01-30T00:01:16;4.25;;;2.80;;
61553;SDS011;47425;51.976;5.326;2024-01-30T00:03:43;3.20;;;2.90;;
61553;SDS011;47425;51.976;5.326;2024-01-30T00:06:09;4.05;;;3.00;;
61553;SDS011;47425;51.976;5.326;2024-01-30T00:08:37;3.15;;;2.70;;
61553;SDS011;47425;51.976;5.326;2024-01-30T00:11:04;4.78;;;3.00;;
61553;SDS011;47425;51.976;5.326;2024-01-30T00:13:32;3.20;;;2.90;;
61553;SDS011;47425;51.976;5.326;2024-01-30T00:15:58;3.30;;;2.97;;
61553;SDS011;47425;51.976;5.326;2024-01-30T00:18:26;5.40;;;2.97;;
61553;SDS011;47425;51.976;5.326;2024-01-30T00:20:53;4.15;;;3.28;;
61553;SDS011;47425;51.976;5.326;2024-01-30T00:23:21;3.80;;;3.40;;
61553;SDS011;47425;51.976;5.326;2024-01-30T00:25:47;4.03;;;2.90;;
61553;SDS011;47425;51.976;5.326;2024-01-30T00:28:14;3.13;;;2.80;;
61553;SDS011;47425;51.976;5.326;2024-01-30T00:30:42;3.03;;;2.63;;
61553;SDS011;47425;51.976;5.326;2024-01-30T00:33:09;8.88;;;5.47;;
61553;SDS011;47425;51.976;5.326;2024-01-30T00:35:37;3.53;;;2.90;;
61553;SDS011;47425;51.976;5.326;2024-01-30T00:38:03;3.92;;;3.03;;
61553;SDS011;47425;51.976;5.326;2024-01-30T00:40:32;4.30;;;3.00;;
61553;SDS011;47425;51.976;5.326;2024-01-30T00:42:58;3.63;;;2.92;;
61553;SDS011;47425;51.976;5.326;2024-01-30T00:45:25;2.67;;;2.42;;
61553;SDS011;47425;51.976;5.326;2024-01-30T00:47:54;3.47;;;2.70;;
61553;SDS011;47425;51.976;5.326;2024-01-30T00:50:21;3.87;;;2.90;;
61553;SDS011;47425;51.976;5.326;2024-01-30T00:52:47;3.05;;;2.75;;
61553;SDS011;47425;51.976;5.326;2024-01-30T00:55:14;4.03;;;2.90;;
61553;SDS011;47425;51.976;5.326;2024-01-30T00:57:41;4.82;;;2.63;;
61553;SDS011;47425;51.976;5.326;2024-01-30T01:00:08;3.40;;;2.97;;
61553;SDS011;47425;51.976;5.326;2024-01-30T01:02:36;3.92;;;2.72;;
61553;SDS011;47425;51.976;5.326;2024-01-30T01:05:06;3.37;;;2.80;;
61553;SDS011;47425;51.976;5.326;2024-01-30T01:07:33;4.50;;;3.10;;
61553;SDS011;47425;51.976;5.326;2024-01-30T01:10:00;2.72;;;2.35;;
61553;SDS011;47425;51.976;5.326;2024-01-30T01:12:27;2.83;;;2.60;;
61553;SDS011;47425;51.976;5.326;2024-01-30T01:14:55;3.55;;;2.92;;
61553;SDS011;47425;51.976;5.326;2024-01-30T01:17:22;3.50;;;2.90;;
61553;SDS011;47425;51.976;5.326;2024-01-30T01:19:48;4.25;;;3.10;;
61553;SDS011;47425;51.976;5.326;2024-01-30T01:22:17;5.15;;;3.30;;
61553;SDS011;47425;51.976;5.326;2024-01-30T01:24:43;4.50;;;3.67;;
61553;SDS011;47425;51.976;5.326;2024-01-30T01:27:11;4.38;;;2.88;;
61553;SDS011;47425;51.976;5.326;2024-01-30T01:29:38;2.60;;;2.40;;
61553;SDS011;47425;51.976;5.326;2024-01-30T01:32:04;3.60;;;2.90;;
61553;SDS011;47425;51.976;5.326;2024-01-30T01:34:31;3.75;;;2.70;;
61553;SDS011;47425;51.976;5.326;2024-01-30T01:36:59;5.95;;;3.47;;
61553;SDS011;47425;51.976;5.326;2024-01-30T01:39:28;2.97;;;2.70;;
61553;SDS011;47425;51.976;5.326;2024-01-30T01:41:54;3.20;;;2.87;;
61553;SDS011;47425;51.976;5.326;2024-01-30T01:44:21;4.60;;;3.00;;
61553;SDS011;47425;51.976;5.326;2024-01-30T01:46:48;3.75;;;2.80;;
61553;SDS011;47425;51.976;5.326;2024-01-30T01:49:15;3.75;;;3.10;;
61553;SDS011;47425;51.976;5.326;2024-01-30T01:51:43;3.35;;;2.60;;
61553;SDS011;47425;51.976;5.326;2024-01-30T01:54:11;3.65;;;2.88;;
61553;SDS011;47425;51.976;5.326;2024-01-30T01:56:39;5.57;;;4.70;;
61553;SDS011;47425;51.976;5.326;2024-01-30T01:59:08;4.07;;;3.67;;
61553;SDS011;47425;51.976;5.326;2024-01-30T02:01:35;3.42;;;2.60;;
61553;SDS011;47425;51.976;5.326;2024-01-30T02:06:30;6.88;;;4.70;;
61553;SDS011;47425;51.976;5.326;2024-01-30T02:08:57;3.45;;;3.00;;
61553;SDS011;47425;51.976;5.326;2024-01-30T02:11:24;3.17;;;2.85;;
61553;SDS011;47425;51.976;5.326;2024-01-30T02:13:52;3.22;;;2.78;;
61553;SDS011;47425;51.976;5.326;2024-01-30T02:16:19;2.88;;;2.58;;
61553;SDS011;47425;51.976;5.326;2024-01-30T02:18:45;5.72;;;3.00;;
61553;SDS011;47425;51.976;5.326;2024-01-30T02:21:15;3.92;;;3.38;;
61553;SDS011;47425;51.976;5.326;2024-01-30T02:23:42;2.80;;;2.50;;
61553;SDS011;47425;51.976;5.326;2024-01-30T02:26:09;2.90;;;2.50;;
61553;SDS011;47425;51.976;5.326;2024-01-30T02:28:36;2.97;;;2.60;;
61553;SDS011;47425;51.976;5.326;2024-01-30T02:31:04;3.42;;;2.90;;
61553;SDS011;47425;51.976;5.326;2024-01-30T02:33:31;3.83;;;2.92;;
61553;SDS011;47425;51.976;5.326;2024-01-30T02:35:58;2.97;;;2.35;;
61553;SDS011;47425;51.976;5.326;2024-01-30T02:38:26;2.72;;;2.35;;
61553;SDS011;47425;51.976;5.326;2024-01-30T02:40:53;3.60;;;2.78;;
61553;SDS011;47425;51.976;5.326;2024-01-30T02:43:21;3.70;;;2.22;;
61553;SDS011;47425;51.976;5.326;2024-01-30T02:45:48;4.03;;;2.63;;
61553;SDS011;47425;51.976;5.326;2024-01-30T02:48:15;2.85;;;2.60;;
61553;SDS011;47425;51.976;5.326;2024-01-30T02:50:42;3.00;;;2.70;;
61553;SDS011;47425;51.976;5.326;2024-01-30T02:53:09;3.83;;;3.10;;
61553;SDS011;47425;51.976;5.326;2024-01-30T02:55:38;8.17;;;5.57;;
61553;SDS011;47425;51.976;5.326;2024-01-30T02:58:04;2.78;;;2.58;;
61553;SDS011;47425;51.976;5.326;2024-01-30T03:00:32;3.15;;;2.58;;
61553;SDS011;47425;51.976;5.326;2024-01-30T03:02:59;5.07;;;2.80;;
61553;SDS011;47425;51.976;5.326;2024-01-30T03:05:27;2.92;;;2.65;;
61553;SDS011;47425;51.976;5.326;2024-01-30T03:07:54;3.72;;;3.08;;
61553;SDS011;47425;51.976;5.326;2024-01-30T03:10:21;3.70;;;2.60;;
61553;SDS011;47425;51.976;5.326;2024-01-30T03:12:49;5.63;;;3.55;;
61553;SDS011;47425;51.976;5.326;2024-01-30T03:15:16;3.33;;;2.50;;
61553;SDS011;47425;51.976;5.326;2024-01-30T03:17:42;2.97;;;2.60;;
61553;SDS011;47425;51.976;5.326;2024-01-30T03:20:11;4.28;;;2.30;;
61553;SDS011;47425;51.976;5.326;2024-01-30T03:22:38;3.08;;;2.78;;
61553;SDS011;47425;51.976;5.326;2024-01-30T03:25:04;3.10;;;2.80;;
61553;SDS011;47425;51.976;5.326;2024-01-30T03:27:31;3.67;;;2.92;;
61553;SDS011;47425;51.976;5.326;2024-01-30T03:29:59;3.72;;;2.78;;
61553;SDS011;47425;51.976;5.326;2024-01-30T03:32:27;4.05;;;2.83;;
61553;SDS011;47425;51.976;5.326;2024-01-30T03:34:54;2.75;;;2.53;;
61553;SDS011;47425;51.976;5.326;2024-01-30T03:37:20;3.63;;;3.05;;
61553;SDS011;47425;51.976;5.326;2024-01-30T03:39:47;3.83;;;3.25;;
61553;SDS011;47425;51.976;5.326;2024-01-30T03:42:13;4.20;;;2.83;;
61553;SDS011;47425;51.976;5.326;2024-01-30T03:44:41;2.88;;;2.63;;
61553;SDS011;47425;51.976;5.326;2024-01-30T03:47:10;5.05;;;2.90;;
61553;SDS011;47425;51.976;5.326;2024-01-30T03:49:37;4.20;;;3.03;;
61553;SDS011;47425;51.976;5.326;2024-01-30T03:52:03;3.50;;;3.05;;
61553;SDS011;47425;51.976;5.326;2024-01-30T03:54:30;3.30;;;2.72;;
61553;SDS011;47425;51.976;5.326;2024-01-30T03:56:58;3.10;;;2.80;;
61553;SDS011;47425;51.976;5.326;2024-01-30T03:59:25;3.00;;;2.25;;
61553;SDS011;47425;51.976;5.326;2024-01-30T04:01:51;3.55;;;2.70;;
61553;SDS011;47425;51.976;5.326;2024-01-30T04:04:20;3.65;;;2.72;;
61553;SDS011;47425;51.976;5.326;2024-01-30T04:06:46;3.47;;;3.10;;
61553;SDS011;47425;51.976;5.326;2024-01-30T04:09:15;3.08;;;2.78;;
61553;SDS011;47425;51.976;5.326;2024-01-30T04:11:41;3.90;;;2.90;;
61553;SDS011;47425;51.976;5.326;2024-01-30T04:14:08;3.35;;;2.88;;
61553;SDS011;47425;51.976;5.326;2024-01-30T04:16:35;3.30;;;2.70;;
61553;SDS011;47425;51.976;5.326;2024-01-30T04:19:02;3.33;;;2.55;;
61553;SDS011;47425;51.976;5.326;2024-01-30T04:21:31;3.60;;;2.70;;
61553;SDS011;47425;51.976;5.326;2024-01-30T04:23:58;3.20;;;2.90;;
61553;SDS011;47425;51.976;5.326;2024-01-30T04:26:24;3.65;;;2.95;;
61553;SDS011;47425;51.976;5.326;2024-01-30T04:28:51;2.92;;;2.65;;
61553;SDS011;47425;51.976;5.326;2024-01-30T04:31:18;3.65;;;2.65;;
61553;SDS011;47425;51.976;5.326;2024-01-30T04:33:44;4.53;;;2.63;;
61553;SDS011;47425;51.976;5.326;2024-01-30T04:36:11;2.80;;;2.53;;
61553;SDS011;47425;51.976;5.326;2024-01-30T04:38:39;4.15;;;3.30;;
61553;SDS011;47425;51.976;5.326;2024-01-30T04:41:05;2.97;;;2.70;;
61553;SDS011;47425;51.976;5.326;2024-01-30T04:43:32;2.83;;;2.50;;
61553;SDS011;47425;51.976;5.326;2024-01-30T04:45:59;2.90;;;2.70;;
61553;SDS011;47425;51.976;5.326;2024-01-30T04:48:29;2.92;;;2.63;;
61553;SDS011;47425;51.976;5.326;2024-01-30T04:50:55;2.92;;;2.63;;
61553;SDS011;47425;51.976;5.326;2024-01-30T04:53:22;3.50;;;2.40;;
61553;SDS011;47425;51.976;5.326;2024-01-30T04:55:50;3.47;;;2.83;;
61553;SDS011;47425;51.976;5.326;2024-01-30T04:58:17;3.63;;;2.50;;
61553;SDS011;47425;51.976;5.326;2024-01-30T05:00:45;2.92;;;2.45;;
61553;SDS011;47425;51.976;5.326;2024-01-30T05:03:18;3.40;;;2.65;;
61553;SDS011;47425;51.976;5.326;2024-01-30T05:05:45;2.90;;;2.70;;
61553;SDS011;47425;51.976;5.326;2024-01-30T05:08:11;2.65;;;2.45;;
61553;SDS011;47425;51.976;5.326;2024-01-30T05:10:38;2.90;;;2.58;;
61553;SDS011;47425;51.976;5.326;2024-01-30T05:13:07;2.58;;;2.38;;
61553;SDS011;47425;51.976;5.326;2024-01-30T05:15:34;2.50;;;2.30;;
61553;SDS011;47425;51.976;5.326;2024-01-30T05:18:01;2.78;;;2.45;;
61553;SDS011;47425;51.976;5.326;2024-01-30T05:20:27;3.17;;;2.92;;
61553;SDS011;47425;51.976;5.326;2024-01-30T05:22:54;2.72;;;2.40;;
61553;SDS011;47425;51.976;5.326;2024-01-30T05:25:22;2.70;;;2.45;;
61553;SDS011;47425;51.976;5.326;2024-01-30T05:27:51;2.78;;;2.30;;
61553;SDS011;47425;51.976;5.326;2024-01-30T05:30:19;3.25;;;2.42;;
61553;SDS011;47425;51.976;5.326;2024-01-30T05:32:45;3.10;;;2.30;;
61553;SDS011;47425;51.976;5.326;2024-01-30T05:35:13;3.53;;;2.43;;
61553;SDS011;47425;51.976;5.326;2024-01-30T05:37:40;3.45;;;2.72;;
61553;SDS011;47425;51.976;5.326;2024-01-30T05:40:07;2.60;;;2.40;;
61553;SDS011;47425;51.976;5.326;2024-01-30T05:42:34;2.58;;;2.38;;
61553;SDS011;47425;51.976;5.326;2024-01-30T05:45:01;3.15;;;2.67;;
61553;SDS011;47425;51.976;5.326;2024-01-30T05:47:29;3.60;;;2.35;;
61553;SDS011;47425;51.976;5.326;2024-01-30T05:49:57;3.13;;;2.63;;
61553;SDS011;47425;51.976;5.326;2024-01-30T05:52:24;2.63;;;2.33;;
61553;SDS011;47425;51.976;5.326;2024-01-30T05:54:50;3.45;;;2.55;;
61553;SDS011;47425;51.976;5.326;2024-01-30T05:57:17;3.00;;;2.47;;
61553;SDS011;47425;51.976;5.326;2024-01-30T05:59:44;2.55;;;2.25;;
61553;SDS011;47425;51.976;5.326;2024-01-30T06:02:14;2.95;;;2.65;;
61553;SDS011;47425;51.976;5.326;2024-01-30T06:04:41;3.15;;;2.47;;
61553;SDS011;47425;51.976;5.326;2024-01-30T06:07:09;4.07;;;2.45;;
61553;SDS011;47425;51.976;5.326;2024-01-30T06:09:36;3.75;;;2.72;;
61553;SDS011;47425;51.976;5.326;2024-01-30T06:12:03;3.53;;;2.60;;
61553;SDS011;47425;51.976;5.326;2024-01-30T06:16:59;4.40;;;2.55;;
61553;SDS011;47425;51.976;5.326;2024-01-30T06:19:25;2.88;;;2.55;;
61553;SDS011;47425;51.976;5.326;2024-01-30T06:21:53;2.65;;;2.33;;
61553;SDS011;47425;51.976;5.326;2024-01-30T06:24:20;2.90;;;2.30;;
61553;SDS011;47425;51.976;5.326;2024-01-30T06:26:46;2.80;;;2.33;;
61553;SDS011;47425;51.976;5.326;2024-01-30T06:29:13;3.95;;;2.80;;
61553;SDS011;47425;51.976;5.326;2024-01-30T06:31:41;2.83;;;2.47;;
61553;SDS011;47425;51.976;5.326;2024-01-30T06:34:08;2.75;;;2.50;;
61553;SDS011;47425;51.976;5.326;2024-01-30T06:36:36;2.58;;;2.33;;
61553;SDS011;47425;51.976;5.326;2024-01-30T06:39:04;2.38;;;2.17;;
61553;SDS011;47425;51.976;5.326;2024-01-30T06:41:32;2.38;;;2.17;;
61553;SDS011;47425;51.976;5.326;2024-01-30T06:44:01;6.05;;;4.13;;
61553;SDS011;47425;51.976;5.326;2024-01-30T06:46:28;2.42;;;2.22;;
61553;SDS011;47425;51.976;5.326;2024-01-30T06:48:55;3.25;;;2.20;;
61553;SDS011;47425;51.976;5.326;2024-01-30T06:51:22;8.70;;;7.72;;
61553;SDS011;47425;51.976;5.326;2024-01-30T06:53:49;2.63;;;2.42;;
61553;SDS011;47425;51.976;5.326;2024-01-30T06:56:17;3.03;;;2.53;;
61553;SDS011;47425;51.976;5.326;2024-01-30T06:58:46;2.78;;;2.50;;
61553;SDS011;47425;51.976;5.326;2024-01-30T07:01:12;6.20;;;4.80;;
61553;SDS011;47425;51.976;5.326;2024-01-30T07:03:39;2.63;;;2.42;;
61553;SDS011;47425;51.976;5.326;2024-01-30T07:06:07;2.60;;;2.40;;
61553;SDS011;47425;51.976;5.326;2024-01-30T07:11:19;2.78;;;2.17;;
61553;SDS011;47425;51.976;5.326;2024-01-30T07:13:46;2.30;;;2.10;;
61553;SDS011;47425;51.976;5.326;2024-01-30T07:16:13;3.65;;;2.40;;
61553;SDS011;47425;51.976;5.326;2024-01-30T07:18:40;3.78;;;2.78;;
61553;SDS011;47425;51.976;5.326;2024-01-30T07:21:08;4.28;;;2.40;;
61553;SDS011;47425;51.976;5.326;2024-01-30T07:23:35;9.02;;;2.75;;
61553;SDS011;47425;51.976;5.326;2024-01-30T07:26:04;6.68;;;3.35;;
61553;SDS011;47425;51.976;5.326;2024-01-30T07:28:33;5.60;;;2.85;;
61553;SDS011;47425;51.976;5.326;2024-01-30T07:30:59;9.63;;;3.27;;
61553;SDS011;47425;51.976;5.326;2024-01-30T07:33:27;7.05;;;3.53;;
61553;SDS011;47425;51.976;5.326;2024-01-30T07:35:54;10.07;;;3.67;;
61553;SDS011;47425;51.976;5.326;2024-01-30T07:38:21;9.02;;;3.90;;
61553;SDS011;47425;51.976;5.326;2024-01-30T07:40:47;10.70;;;4.05;;
61553;SDS011;47425;51.976;5.326;2024-01-30T07:43:14;7.45;;;4.00;;
61553;SDS011;47425;51.976;5.326;2024-01-30T07:45:43;9.17;;;4.43;;
61553;SDS011;47425;51.976;5.326;2024-01-30T07:48:10;7.05;;;3.83;;
61553;SDS011;47425;51.976;5.326;2024-01-30T07:50:37;6.13;;;3.47;;
61553;SDS011;47425;51.976;5.326;2024-01-30T07:53:04;9.02;;;3.63;;
61553;SDS011;47425;51.976;5.326;2024-01-30T07:55:30;9.52;;;4.47;;
61553;SDS011;47425;51.976;5.326;2024-01-30T07:57:59;11.68;;;3.72;;
61553;SDS011;47425;51.976;5.326;2024-01-30T08:00:26;8.90;;;4.15;;
61553;SDS011;47425;51.976;5.326;2024-01-30T08:02:55;10.50;;;3.75;;
61553;SDS011;47425;51.976;5.326;2024-01-30T08:05:22;13.52;;;4.45;;
61553;SDS011;47425;51.976;5.326;2024-01-30T08:07:49;16.38;;;4.03;;
61553;SDS011;47425;51.976;5.326;2024-01-30T08:10:17;14.10;;;4.15;;
61553;SDS011;47425;51.976;5.326;2024-01-30T08:12:44;12.32;;;3.97;;
61553;SDS011;47425;51.976;5.326;2024-01-30T08:15:11;6.32;;;3.53;;
61553;SDS011;47425;51.976;5.326;2024-01-30T08:17:38;8.70;;;3.78;;
61553;SDS011;47425;51.976;5.326;2024-01-30T08:20:07;8.10;;;3.88;;
61553;SDS011;47425;51.976;5.326;2024-01-30T08:22:37;8.20;;;3.90;;
61553;SDS011;47425;51.976;5.326;2024-01-30T08:25:05;8.13;;;3.50;;
61553;SDS011;47425;51.976;5.326;2024-01-30T08:27:33;8.40;;;4.10;;
61553;SDS011;47425;51.976;5.326;2024-01-30T08:30:00;6.35;;;3.80;;
61553;SDS011;47425;51.976;5.326;2024-01-30T08:32:27;8.55;;;3.92;;
61553;SDS011;47425;51.976;5.326;2024-01-30T08:34:55;8.30;;;4.20;;
61553;SDS011;47425;51.976;5.326;2024-01-30T08:37:24;7.75;;;3.80;;
61553;SDS011;47425;51.976;5.326;2024-01-30T08:39:51;8.77;;;4.10;;
61553;SDS011;47425;51.976;5.326;2024-01-30T08:42:17;8.70;;;3.75;;
61553;SDS011;47425;51.976;5.326;2024-01-30T08:44:47;6.95;;;3.50;;
61553;SDS011;47425;51.976;5.326;2024-01-30T08:47:14;7.15;;;3.38;;
61553;SDS011;47425;51.976;5.326;2024-01-30T08:49:42;8.10;;;4.10;;
61553;SDS011;47425;51.976;5.326;2024-01-30T08:52:09;7.78;;;3.50;;
61553;SDS011;47425;51.976;5.326;2024-01-30T08:54:37;6.40;;;3.75;;
61553;SDS011;47425;51.976;5.326;2024-01-30T08:57:04;7.97;;;3.57;;
61553;SDS011;47425;51.976;5.326;2024-01-30T08:59:31;5.60;;;3.13;;
61553;SDS011;47425;51.976;5.326;2024-01-30T09:02:00;4.80;;;3.10;;
61553;SDS011;47425;51.976;5.326;2024-01-30T09:04:27;5.30;;;3.55;;
61553;SDS011;47425;51.976;5.326;2024-01-30T09:06:54;6.35;;;3.00;;
61553;SDS011;47425;51.976;5.326;2024-01-30T09:09:20;7.88;;;3.97;;
61553;SDS011;47425;51.976;5.326;2024-01-30T09:11:49;5.82;;;3.17;;
61553;SDS011;47425;51.976;5.326;2024-01-30T09:14:17;5.40;;;3.35;;
61553;SDS011;47425;51.976;5.326;2024-01-30T09:16:44;5.43;;;3.25;;
61553;SDS011;47425;51.976;5.326;2024-01-30T09:19:11;4.50;;;3.28;;
61553;SDS011;47425;51.976;5.326;2024-01-30T09:21:37;6.93;;;3.28;;
61553;SDS011;47425;51.976;5.326;2024-01-30T09:24:05;7.95;;;3.53;;
61553;SDS011;47425;51.976;5.326;2024-01-30T09:26:34;5.28;;;3.10;;
61553;SDS011;47425;51.976;5.326;2024-01-30T09:29:02;5.72;;;2.92;;
61553;SDS011;47425;51.976;5.326;2024-01-30T09:31:28;7.27;;;3.53;;
61553;SDS011;47425;51.976;5.326;2024-01-30T09:33:55;5.38;;;3.38;;
61553;SDS011;47425;51.976;5.326;2024-01-30T09:36:21;5.93;;;3.35;;
61553;SDS011;47425;51.976;5.326;2024-01-30T09:38:49;5.28;;;3.28;;
61553;SDS011;47425;51.976;5.326;2024-01-30T09:41:16;6.30;;;3.70;;
61553;SDS011;47425;51.976;5.326;2024-01-30T09:43:46;5.20;;;3.00;;
61553;SDS011;47425;51.976;5.326;2024-01-30T09:46:16;4.93;;;3.03;;
61553;SDS011;47425;51.976;5.326;2024-01-30T09:48:44;5.70;;;3.40;;
61553;SDS011;47425;51.976;5.326;2024-01-30T09:51:14;5.20;;;3.13;;
61553;SDS011;47425;51.976;5.326;2024-01-30T09:53:42;4.82;;;3.00;;
61553;SDS011;47425;51.976;5.326;2024-01-30T09:56:09;9.88;;;3.83;;
61553;SDS011;47425;51.976;5.326;2024-01-30T09:58:36;5.03;;;3.25;;
61553;SDS011;47425;51.976;5.326;2024-01-30T10:01:05;7.50;;;3.10;;
61553;SDS011;47425;51.976;5.326;2024-01-30T10:03:35;4.47;;;3.30;;
61553;SDS011;47425;51.976;5.326;2024-01-30T10:06:02;4.97;;;3.50;;
61553;SDS011;47425;51.976;5.326;2024-01-30T10:08:28;5.25;;;3.05;;
61553;SDS011;47425;51.976;5.326;2024-01-30T10:10:55;6.70;;;3.20;;
61553;SDS011;47425;51.976;5.326;2024-01-30T10:13:22;6.15;;;3.22;;
61553;SDS011;47425;51.976;5.326;2024-01-30T10:15:50;4.18;;;2.88;;
61553;SDS011;47425;51.976;5.326;2024-01-30T10:18:20;5.05;;;3.20;;
61553;SDS011;47425;51.976;5.326;2024-01-30T10:20:48;4.10;;;3.10;;
61553;SDS011;47425;51.976;5.326;2024-01-30T10:23:14;5.90;;;3.80;;
61553;SDS011;47425;51.976;5.326;2024-01-30T10:25:41;5.40;;;3.45;;
61553;SDS011;47425;51.976;5.326;2024-01-30T10:28:09;5.18;;;3.22;;
61553;SDS011;47425;51.976;5.326;2024-01-30T10:30:37;8.20;;;4.70;;
61553;SDS011;47425;51.976;5.326;2024-01-30T10:33:09;5.85;;;3.17;;
61553;SDS011;47425;51.976;5.326;2024-01-30T10:35:37;4.95;;;3.13;;
61553;SDS011;47425;51.976;5.326;2024-01-30T10:38:05;4.93;;;2.97;;
61553;SDS011;47425;51.976;5.326;2024-01-30T10:40:35;8.68;;;3.90;;
61553;SDS011;47425;51.976;5.326;2024-01-30T10:43:05;5.18;;;2.70;;
61553;SDS011;47425;51.976;5.326;2024-01-30T10:45:57;6.75;;;3.28;;
61553;SDS011;47425;51.976;5.326;2024-01-30T10:48:28;8.05;;;4.15;;
61553;SDS011;47425;51.976;5.326;2024-01-30T10:50:59;6.78;;;3.03;;
61553;SDS011;47425;51.976;5.326;2024-01-30T10:53:27;7.78;;;4.18;;
61553;SDS011;47425;51.976;5.326;2024-01-30T10:55:57;5.40;;;2.92;;
61553;SDS011;47425;51.976;5.326;2024-01-30T10:58:26;3.47;;;2.78;;
61553;SDS011;47425;51.976;5.326;2024-01-30T11:00:53;5.47;;;2.80;;
61553;SDS011;47425;51.976;5.326;2024-01-30T11:03:21;3.95;;;3.00;;
61553;SDS011;47425;51.976;5.326;2024-01-30T11:05:49;4.85;;;2.80;;
61553;SDS011;47425;51.976;5.326;2024-01-30T11:08:22;4.43;;;3.40;;
61553;SDS011;47425;51.976;5.326;2024-01-30T11:10:55;4.07;;;2.90;;
61553;SDS011;47425;51.976;5.326;2024-01-30T11:13:26;8.93;;;3.80;;
61553;SDS011;47425;51.976;5.326;2024-01-30T11:15:53;5.57;;;3.10;;
61553;SDS011;47425;51.976;5.326;2024-01-30T11:18:23;5.40;;;3.08;;
61553;SDS011;47425;51.976;5.326;2024-01-30T11:20:52;5.30;;;2.80;;
61553;SDS011;47425;51.976;5.326;2024-01-30T11:23:18;5.88;;;3.03;;
61553;SDS011;47425;51.976;5.326;2024-01-30T11:25:48;4.57;;;2.90;;
61553;SDS011;47425;51.976;5.326;2024-01-30T11:28:16;6.25;;;2.85;;
61553;SDS011;47425;51.976;5.326;2024-01-30T11:30:43;6.93;;;2.30;;
61553;SDS011;47425;51.976;5.326;2024-01-30T11:33:14;4.60;;;2.70;;
61553;SDS011;47425;51.976;5.326;2024-01-30T11:35:41;3.42;;;2.22;;
61553;SDS011;47425;51.976;5.326;2024-01-30T11:38:09;5.32;;;2.70;;
61553;SDS011;47425;51.976;5.326;2024-01-30T11:40:39;10.05;;;3.00;;
61553;SDS011;47425;51.976;5.326;2024-01-30T11:43:07;4.22;;;2.70;;
61553;SDS011;47425;51.976;5.326;2024-01-30T11:45:41;6.88;;;2.95;;
61553;SDS011;47425;51.976;5.326;2024-01-30T11:48:20;9.05;;;3.50;;
61553;SDS011;47425;51.976;5.326;2024-01-30T11:50:48;5.72;;;2.85;;
61553;SDS011;47425;51.976;5.326;2024-01-30T11:53:16;4.85;;;2.40;;
61553;SDS011;47425;51.976;5.326;2024-01-30T11:55:49;7.50;;;2.80;;
61553;SDS011;47425;51.976;5.326;2024-01-30T11:58:15;6.38;;;2.78;;
61553;SDS011;47425;51.976;5.326;2024-01-30T12:00:53;3.08;;;2.40;;
61553;SDS011;47425;51.976;5.326;2024-01-30T12:03:22;2.28;;;1.80;;
61553;SDS011;47425;51.976;5.326;2024-01-30T12:05:54;4.55;;;2.00;;
61553;SDS011;47425;51.976;5.326;2024-01-30T12:08:21;3.75;;;2.22;;
61553;SDS011;47425;51.976;5.326;2024-01-30T12:10:54;6.32;;;2.03;;
61553;SDS011;47425;51.976;5.326;2024-01-30T12:13:22;4.13;;;2.25;;
61553;SDS011;47425;51.976;5.326;2024-01-30T12:15:49;5.97;;;2.38;;
61553;SDS011;47425;51.976;5.326;2024-01-30T12:18:19;4.53;;;1.88;;
61553;SDS011;47425;51.976;5.326;2024-01-30T12:20:56;5.45;;;1.85;;
61553;SDS011;47425;51.976;5.326;2024-01-30T12:23:23;34.67;;;10.82;;
61553;SDS011;47425;51.976;5.326;2024-01-30T12:25:51;22.23;;;8.95;;
61553;SDS011;47425;51.976;5.326;2024-01-30T12:28:19;18.58;;;7.07;;
61553;SDS011;47425;51.976;5.326;2024-01-30T12:30:46;16.05;;;6.68;;
61553;SDS011;47425;51.976;5.326;2024-01-30T12:33:15;17.70;;;7.05;;
61553;SDS011;47425;51.976;5.326;2024-01-30T12:35:46;20.35;;;6.32;;
61553;SDS011;47425;51.976;5.326;2024-01-30T12:38:13;12.95;;;5.55;;
61553;SDS011;47425;51.976;5.326;2024-01-30T12:40:41;7.30;;;2.83;;
61553;SDS011;47425;51.976;5.326;2024-01-30T12:43:08;11.77;;;3.88;;
61553;SDS011;47425;51.976;5.326;2024-01-30T12:45:36;6.97;;;2.97;;
61553;SDS011;47425;51.976;5.326;2024-01-30T12:48:03;6.03;;;2.90;;
61553;SDS011;47425;51.976;5.326;2024-01-30T12:50:30;6.35;;;2.58;;
61553;SDS011;47425;51.976;5.326;2024-01-30T12:52:59;8.30;;;3.00;;
61553;SDS011;47425;51.976;5.326;2024-01-30T12:55:26;7.82;;;2.78;;
61553;SDS011;47425;51.976;5.326;2024-01-30T12:57:53;7.75;;;2.47;;
61553;SDS011;47425;51.976;5.326;2024-01-30T13:00:20;9.15;;;2.40;;
61553;SDS011;47425;51.976;5.326;2024-01-30T13:02:51;6.40;;;2.28;;
61553;SDS011;47425;51.976;5.326;2024-01-30T13:05:18;4.43;;;2.13;;
61553;SDS011;47425;51.976;5.326;2024-01-30T13:07:44;4.70;;;2.40;;
61553;SDS011;47425;51.976;5.326;2024-01-30T13:10:13;4.53;;;1.90;;
61553;SDS011;47425;51.976;5.326;2024-01-30T13:12:39;6.13;;;2.13;;
61553;SDS011;47425;51.976;5.326;2024-01-30T13:15:06;7.25;;;2.65;;
61553;SDS011;47425;51.976;5.326;2024-01-30T13:17:33;4.70;;;2.20;;
61553;SDS011;47425;51.976;5.326;2024-01-30T13:20:01;7.32;;;2.25;;
61553;SDS011;47425;51.976;5.326;2024-01-30T13:22:29;4.50;;;2.13;;
61553;SDS011;47425;51.976;5.326;2024-01-30T13:24:55;3.80;;;2.00;;
61553;SDS011;47425;51.976;5.326;2024-01-30T13:27:25;5.20;;;2.08;;
61553;SDS011;47425;51.976;5.326;2024-01-30T13:29:52;2.45;;;1.50;;
61553;SDS011;47425;51.976;5.326;2024-01-30T13:32:19;4.75;;;1.70;;
61553;SDS011;47425;51.976;5.326;2024-01-30T13:34:46;3.80;;;1.55;;
61553;SDS011;47425;51.976;5.326;2024-01-30T13:37:13;4.07;;;1.70;;
61553;SDS011;47425;51.976;5.326;2024-01-30T13:39:39;3.80;;;1.55;;
61553;SDS011;47425;51.976;5.326;2024-01-30T13:42:07;5.90;;;1.75;;
61553;SDS011;47425;51.976;5.326;2024-01-30T13:44:35;3.22;;;1.40;;
61553;SDS011;47425;51.976;5.326;2024-01-30T13:47:02;4.60;;;1.83;;
61553;SDS011;47425;51.976;5.326;2024-01-30T13:49:29;3.65;;;1.65;;
61553;SDS011;47425;51.976;5.326;2024-01-30T13:51:56;4.68;;;1.30;;
61553;SDS011;47425;51.976;5.326;2024-01-30T13:56:51;2.30;;;1.13;;
61553;SDS011;47425;51.976;5.326;2024-01-30T13:59:18;2.47;;;1.30;;
61553;SDS011;47425;51.976;5.326;2024-01-30T14:01:51;3.75;;;1.35;;
61553;SDS011;47425;51.976;5.326;2024-01-30T14:04:18;3.92;;;1.60;;
61553;SDS011;47425;51.976;5.326;2024-01-30T14:06:45;2.70;;;1.38;;
61553;SDS011;47425;51.976;5.326;2024-01-30T14:09:12;2.20;;;1.55;;
61553;SDS011;47425;51.976;5.326;2024-01-30T14:11:40;1.80;;;1.50;;
61553;SDS011;47425;51.976;5.326;2024-01-30T14:14:07;3.17;;;1.25;;
61553;SDS011;47425;51.976;5.326;2024-01-30T14:16:35;6.32;;;2.47;;
61553;SDS011;47425;51.976;5.326;2024-01-30T14:19:05;4.22;;;2.08;;
61553;SDS011;47425;51.976;5.326;2024-01-30T14:21:31;2.95;;;1.20;;
61553;SDS011;47425;51.976;5.326;2024-01-30T14:23:58;1.90;;;1.20;;
61553;SDS011;47425;51.976;5.326;2024-01-30T14:26:25;2.58;;;1.35;;
61553;SDS011;47425;51.976;5.326;2024-01-30T14:28:51;2.75;;;1.40;;
61553;SDS011;47425;51.976;5.326;2024-01-30T14:31:18;4.55;;;1.50;;
61553;SDS011;47425;51.976;5.326;2024-01-30T14:33:46;3.65;;;1.55;;
61553;SDS011;47425;51.976;5.326;2024-01-30T14:36:14;2.92;;;1.30;;
61553;SDS011;47425;51.976;5.326;2024-01-30T14:38:43;3.35;;;1.65;;
61553;SDS011;47425;51.976;5.326;2024-01-30T14:41:10;3.17;;;1.60;;
61553;SDS011;47425;51.976;5.326;2024-01-30T14:43:36;2.47;;;1.60;;
61553;SDS011;47425;51.976;5.326;2024-01-30T14:46:04;2.40;;;1.20;;
61553;SDS011;47425;51.976;5.326;2024-01-30T14:48:32;2.95;;;1.40;;
61553;SDS011;47425;51.976;5.326;2024-01-30T14:50:58;6.47;;;1.88;;
61553;SDS011;47425;51.976;5.326;2024-01-30T14:53:26;2.25;;;1.27;;
61553;SDS011;47425;51.976;5.326;2024-01-30T14:55:53;4.65;;;1.88;;
61553;SDS011;47425;51.976;5.326;2024-01-30T14:58:21;2.65;;;1.30;;
61553;SDS011;47425;51.976;5.326;2024-01-30T15:00:48;2.67;;;1.20;;